Inhapim, Brazil
Current Conditions -  °F | °C
As of 7:50 PM on Friday 19 Dec 2014 (Local Time) from SBIP Reporting Station
Scattered Clouds Scattered Clouds  
Wind Chill: 81°   Ceiling: Unl
Heat Index: 81°   Visibility: 6mi
Dew Point: 61°   Wind: 3mph
Humidity: 51%   Direction: 20°NNE
Pressure: 29.77"   Gusts: NA
Location:  19.55°S, 42.12°W
Report Text: SBIP 192150Z 02003KT 9999 SCT030 27/16 Q1008
Loading
Personal Weather Stations






























Interactive Weather Map New forecast layout! Learn more

10-Day Weather Forecast

Advertisements
Track Severe Weather on mobile